sensor_id;sensor_type;location;lat;lon;timestamp;P1;durP1;ratioP1;P2;durP2;ratioP2
18259;SDS011;9256;52.236;5.712;2023-04-03T00:01:44;5.10;;;1.20;;
18259;SDS011;9256;52.236;5.712;2023-04-03T00:04:11;3.00;;;0.90;;
18259;SDS011;9256;52.236;5.712;2023-04-03T00:06:38;3.40;;;1.50;;
18259;SDS011;9256;52.236;5.712;2023-04-03T00:09:05;3.70;;;1.10;;
18259;SDS011;9256;52.236;5.712;2023-04-03T00:11:32;2.67;;;0.97;;
18259;SDS011;9256;52.236;5.712;2023-04-03T00:14:00;2.00;;;0.90;;
18259;SDS011;9256;52.236;5.712;2023-04-03T00:16:27;3.90;;;1.03;;
18259;SDS011;9256;52.236;5.712;2023-04-03T00:18:54;2.83;;;0.90;;
18259;SDS011;9256;52.236;5.712;2023-04-03T00:21:21;3.47;;;0.80;;
18259;SDS011;9256;52.236;5.712;2023-04-03T00:23:48;5.10;;;1.17;;
18259;SDS011;9256;52.236;5.712;2023-04-03T00:26:15;2.20;;;0.90;;
18259;SDS011;9256;52.236;5.712;2023-04-03T00:28:42;2.87;;;0.73;;
18259;SDS011;9256;52.236;5.712;2023-04-03T00:31:10;3.70;;;1.10;;
18259;SDS011;9256;52.236;5.712;2023-04-03T00:33:40;7.77;;;1.00;;
18259;SDS011;9256;52.236;5.712;2023-04-03T00:36:07;5.20;;;1.00;;
18259;SDS011;9256;52.236;5.712;2023-04-03T00:38:35;2.83;;;1.10;;
18259;SDS011;9256;52.236;5.712;2023-04-03T00:41:02;1.93;;;0.90;;
18259;SDS011;9256;52.236;5.712;2023-04-03T00:43:30;2.07;;;0.80;;
18259;SDS011;9256;52.236;5.712;2023-04-03T00:45:57;2.77;;;1.00;;
18259;SDS011;9256;52.236;5.712;2023-04-03T00:48:27;3.63;;;1.07;;
18259;SDS011;9256;52.236;5.712;2023-04-03T00:50:57;6.27;;;0.97;;
18259;SDS011;9256;52.236;5.712;2023-04-03T00:53:26;3.73;;;1.23;;
18259;SDS011;9256;52.236;5.712;2023-04-03T00:55:56;4.07;;;1.10;;
18259;SDS011;9256;52.236;5.712;2023-04-03T00:58:26;4.97;;;1.33;;
18259;SDS011;9256;52.236;5.712;2023-04-03T01:00:59;5.22;;;1.50;;
18259;SDS011;9256;52.236;5.712;2023-04-03T01:03:30;4.63;;;1.10;;
18259;SDS011;9256;52.236;5.712;2023-04-03T01:05:57;5.30;;;1.13;;
18259;SDS011;9256;52.236;5.712;2023-04-03T01:08:24;4.13;;;0.90;;
18259;SDS011;9256;52.236;5.712;2023-04-03T01:10:51;3.85;;;1.10;;
18259;SDS011;9256;52.236;5.712;2023-04-03T01:13:20;8.87;;;1.10;;
18259;SDS011;9256;52.236;5.712;2023-04-03T01:15:49;5.10;;;1.17;;
18259;SDS011;9256;52.236;5.712;2023-04-03T01:18:16;3.23;;;1.07;;
18259;SDS011;9256;52.236;5.712;2023-04-03T01:24:02;3.00;;;1.10;;
18259;SDS011;9256;52.236;5.712;2023-04-03T01:26:46;4.53;;;1.30;;
18259;SDS011;9256;52.236;5.712;2023-04-03T01:29:18;2.57;;;1.00;;
18259;SDS011;9256;52.236;5.712;2023-04-03T01:31:51;6.30;;;1.23;;
18259;SDS011;9256;52.236;5.712;2023-04-03T01:34:19;4.13;;;1.40;;
18259;SDS011;9256;52.236;5.712;2023-04-03T01:36:46;3.77;;;1.17;;
18259;SDS011;9256;52.236;5.712;2023-04-03T01:39:14;4.43;;;1.10;;
18259;SDS011;9256;52.236;5.712;2023-04-03T01:41:44;4.07;;;1.10;;
18259;SDS011;9256;52.236;5.712;2023-04-03T01:44:11;4.33;;;1.20;;
18259;SDS011;9256;52.236;5.712;2023-04-03T01:46:38;3.43;;;1.30;;
18259;SDS011;9256;52.236;5.712;2023-04-03T01:49:07;4.13;;;1.33;;
18259;SDS011;9256;52.236;5.712;2023-04-03T01:51:34;5.67;;;1.10;;
18259;SDS011;9256;52.236;5.712;2023-04-03T01:54:01;7.03;;;1.10;;
18259;SDS011;9256;52.236;5.712;2023-04-03T01:56:29;6.07;;;1.30;;
18259;SDS011;9256;52.236;5.712;2023-04-03T01:58:55;4.03;;;1.27;;
18259;SDS011;9256;52.236;5.712;2023-04-03T02:01:22;3.10;;;1.00;;
18259;SDS011;9256;52.236;5.712;2023-04-03T02:03:50;2.97;;;1.13;;
18259;SDS011;9256;52.236;5.712;2023-04-03T02:06:19;3.13;;;1.30;;
18259;SDS011;9256;52.236;5.712;2023-04-03T02:08:46;3.40;;;1.35;;
18259;SDS011;9256;52.236;5.712;2023-04-03T02:11:13;4.23;;;1.37;;
18259;SDS011;9256;52.236;5.712;2023-04-03T02:13:40;3.90;;;1.17;;
18259;SDS011;9256;52.236;5.712;2023-04-03T02:16:07;4.57;;;1.13;;
18259;SDS011;9256;52.236;5.712;2023-04-03T02:18:36;4.53;;;1.40;;
18259;SDS011;9256;52.236;5.712;2023-04-03T02:21:03;3.77;;;1.20;;
18259;SDS011;9256;52.236;5.712;2023-04-03T02:23:32;8.83;;;1.40;;
18259;SDS011;9256;52.236;5.712;2023-04-03T02:26:07;2.80;;;1.23;;
18259;SDS011;9256;52.236;5.712;2023-04-03T02:28:36;4.17;;;1.30;;
18259;SDS011;9256;52.236;5.712;2023-04-03T02:31:03;6.07;;;1.47;;
18259;SDS011;9256;52.236;5.712;2023-04-03T02:33:31;3.83;;;1.40;;
18259;SDS011;9256;52.236;5.712;2023-04-03T02:35:58;4.47;;;1.50;;
18259;SDS011;9256;52.236;5.712;2023-04-03T02:38:25;2.90;;;1.20;;
18259;SDS011;9256;52.236;5.712;2023-04-03T02:40:57;2.77;;;1.20;;
18259;SDS011;9256;52.236;5.712;2023-04-03T02:43:26;3.00;;;1.20;;
18259;SDS011;9256;52.236;5.712;2023-04-03T02:45:53;4.37;;;1.27;;
18259;SDS011;9256;52.236;5.712;2023-04-03T02:48:21;4.97;;;1.30;;
18259;SDS011;9256;52.236;5.712;2023-04-03T02:50:48;3.97;;;1.40;;
18259;SDS011;9256;52.236;5.712;2023-04-03T02:53:16;7.23;;;1.53;;
18259;SDS011;9256;52.236;5.712;2023-04-03T02:55:44;3.30;;;1.20;;
18259;SDS011;9256;52.236;5.712;2023-04-03T02:58:12;3.97;;;1.30;;
18259;SDS011;9256;52.236;5.712;2023-04-03T03:00:39;5.03;;;1.30;;
18259;SDS011;9256;52.236;5.712;2023-04-03T03:03:06;5.73;;;1.50;;
18259;SDS011;9256;52.236;5.712;2023-04-03T03:05:34;8.00;;;2.10;;
18259;SDS011;9256;52.236;5.712;2023-04-03T03:08:01;5.40;;;1.50;;
18259;SDS011;9256;52.236;5.712;2023-04-03T03:10:28;4.40;;;1.50;;
18259;SDS011;9256;52.236;5.712;2023-04-03T03:12:55;4.27;;;1.53;;
18259;SDS011;9256;52.236;5.712;2023-04-03T03:15:23;5.00;;;1.53;;
18259;SDS011;9256;52.236;5.712;2023-04-03T03:17:50;4.00;;;1.60;;
18259;SDS011;9256;52.236;5.712;2023-04-03T03:20:17;2.67;;;1.30;;
18259;SDS011;9256;52.236;5.712;2023-04-03T03:22:44;6.75;;;1.80;;
18259;SDS011;9256;52.236;5.712;2023-04-03T03:25:11;7.80;;;1.53;;
18259;SDS011;9256;52.236;5.712;2023-04-03T03:27:38;6.10;;;1.40;;
18259;SDS011;9256;52.236;5.712;2023-04-03T03:30:05;6.13;;;2.00;;
18259;SDS011;9256;52.236;5.712;2023-04-03T03:32:34;4.23;;;1.60;;
18259;SDS011;9256;52.236;5.712;2023-04-03T03:35:02;4.23;;;1.50;;
18259;SDS011;9256;52.236;5.712;2023-04-03T03:37:29;7.63;;;1.60;;
18259;SDS011;9256;52.236;5.712;2023-04-03T03:39:56;5.27;;;1.67;;
18259;SDS011;9256;52.236;5.712;2023-04-03T03:42:22;5.90;;;1.83;;
18259;SDS011;9256;52.236;5.712;2023-04-03T03:44:49;4.53;;;1.67;;
18259;SDS011;9256;52.236;5.712;2023-04-03T03:47:17;6.80;;;1.70;;
18259;SDS011;9256;52.236;5.712;2023-04-03T03:49:45;7.23;;;1.80;;
18259;SDS011;9256;52.236;5.712;2023-04-03T03:52:12;4.87;;;1.60;;
18259;SDS011;9256;52.236;5.712;2023-04-03T03:54:39;7.80;;;1.80;;
18259;SDS011;9256;52.236;5.712;2023-04-03T03:57:06;6.70;;;1.60;;
18259;SDS011;9256;52.236;5.712;2023-04-03T03:59:33;5.20;;;1.60;;
18259;SDS011;9256;52.236;5.712;2023-04-03T04:01:59;5.37;;;1.70;;
18259;SDS011;9256;52.236;5.712;2023-04-03T04:04:27;5.03;;;1.53;;
18259;SDS011;9256;52.236;5.712;2023-04-03T04:06:55;5.80;;;1.70;;
18259;SDS011;9256;52.236;5.712;2023-04-03T04:09:22;4.67;;;1.83;;
18259;SDS011;9256;52.236;5.712;2023-04-03T04:11:49;8.30;;;1.60;;
18259;SDS011;9256;52.236;5.712;2023-04-03T04:14:16;10.20;;;1.87;;
18259;SDS011;9256;52.236;5.712;2023-04-03T04:16:43;7.40;;;1.97;;
18259;SDS011;9256;52.236;5.712;2023-04-03T04:19:10;4.10;;;1.77;;
18259;SDS011;9256;52.236;5.712;2023-04-03T04:21:37;5.83;;;1.73;;
18259;SDS011;9256;52.236;5.712;2023-04-03T04:24:06;6.27;;;2.17;;
18259;SDS011;9256;52.236;5.712;2023-04-03T04:26:33;6.50;;;1.90;;
18259;SDS011;9256;52.236;5.712;2023-04-03T04:29:00;4.37;;;1.87;;
18259;SDS011;9256;52.236;5.712;2023-04-03T04:31:27;8.73;;;1.80;;
18259;SDS011;9256;52.236;5.712;2023-04-03T04:33:54;7.67;;;1.77;;
18259;SDS011;9256;52.236;5.712;2023-04-03T04:36:21;10.13;;;2.00;;
18259;SDS011;9256;52.236;5.712;2023-04-03T04:38:48;8.60;;;2.00;;
18259;SDS011;9256;52.236;5.712;2023-04-03T04:41:19;3.97;;;1.70;;
18259;SDS011;9256;52.236;5.712;2023-04-03T04:43:47;6.10;;;1.80;;
18259;SDS011;9256;52.236;5.712;2023-04-03T04:46:14;6.93;;;1.83;;
18259;SDS011;9256;52.236;5.712;2023-04-03T04:48:41;8.53;;;1.70;;
18259;SDS011;9256;52.236;5.712;2023-04-03T04:51:08;4.30;;;1.90;;
18259;SDS011;9256;52.236;5.712;2023-04-03T04:53:36;6.47;;;1.60;;
18259;SDS011;9256;52.236;5.712;2023-04-03T04:56:03;7.40;;;1.70;;
18259;SDS011;9256;52.236;5.712;2023-04-03T04:58:32;7.17;;;2.10;;
18259;SDS011;9256;52.236;5.712;2023-04-03T05:00:59;9.13;;;2.00;;
18259;SDS011;9256;52.236;5.712;2023-04-03T05:03:26;6.17;;;1.80;;
18259;SDS011;9256;52.236;5.712;2023-04-03T05:05:53;4.97;;;2.23;;
18259;SDS011;9256;52.236;5.712;2023-04-03T05:08:20;9.53;;;1.90;;
18259;SDS011;9256;52.236;5.712;2023-04-03T05:10:46;5.47;;;1.90;;
18259;SDS011;9256;52.236;5.712;2023-04-03T05:13:14;6.00;;;2.03;;
18259;SDS011;9256;52.236;5.712;2023-04-03T05:15:42;6.83;;;1.77;;
18259;SDS011;9256;52.236;5.712;2023-04-03T05:18:09;8.20;;;2.33;;
18259;SDS011;9256;52.236;5.712;2023-04-03T05:20:36;8.03;;;1.87;;
18259;SDS011;9256;52.236;5.712;2023-04-03T05:23:03;6.37;;;1.83;;
18259;SDS011;9256;52.236;5.712;2023-04-03T05:25:30;4.90;;;1.70;;
18259;SDS011;9256;52.236;5.712;2023-04-03T05:27:57;6.67;;;2.10;;
18259;SDS011;9256;52.236;5.712;2023-04-03T05:30:24;8.70;;;1.70;;
18259;SDS011;9256;52.236;5.712;2023-04-03T05:32:53;5.37;;;1.53;;
18259;SDS011;9256;52.236;5.712;2023-04-03T05:35:20;4.83;;;1.90;;
18259;SDS011;9256;52.236;5.712;2023-04-03T05:37:48;8.50;;;2.80;;
18259;SDS011;9256;52.236;5.712;2023-04-03T05:40:18;7.97;;;2.27;;
18259;SDS011;9256;52.236;5.712;2023-04-03T05:42:45;10.10;;;2.87;;
18259;SDS011;9256;52.236;5.712;2023-04-03T05:45:12;7.70;;;2.17;;
18259;SDS011;9256;52.236;5.712;2023-04-03T05:47:39;7.20;;;1.90;;
18259;SDS011;9256;52.236;5.712;2023-04-03T05:50:07;6.27;;;1.90;;
18259;SDS011;9256;52.236;5.712;2023-04-03T05:52:35;7.00;;;1.93;;
18259;SDS011;9256;52.236;5.712;2023-04-03T05:55:04;6.50;;;1.90;;
18259;SDS011;9256;52.236;5.712;2023-04-03T05:57:32;6.13;;;1.90;;
18259;SDS011;9256;52.236;5.712;2023-04-03T05:59:59;7.23;;;1.90;;
18259;SDS011;9256;52.236;5.712;2023-04-03T06:02:25;6.57;;;2.07;;
18259;SDS011;9256;52.236;5.712;2023-04-03T06:04:52;8.23;;;2.07;;
18259;SDS011;9256;52.236;5.712;2023-04-03T06:07:21;6.83;;;1.83;;
18259;SDS011;9256;52.236;5.712;2023-04-03T06:09:52;6.93;;;2.30;;
18259;SDS011;9256;52.236;5.712;2023-04-03T06:12:19;4.17;;;1.83;;
18259;SDS011;9256;52.236;5.712;2023-04-03T06:14:46;5.33;;;2.00;;
18259;SDS011;9256;52.236;5.712;2023-04-03T06:17:13;6.03;;;2.30;;
18259;SDS011;9256;52.236;5.712;2023-04-03T06:19:42;7.30;;;2.10;;
18259;SDS011;9256;52.236;5.712;2023-04-03T06:22:10;6.63;;;2.40;;
18259;SDS011;9256;52.236;5.712;2023-04-03T06:24:39;7.27;;;2.20;;
18259;SDS011;9256;52.236;5.712;2023-04-03T06:27:06;6.90;;;2.30;;
18259;SDS011;9256;52.236;5.712;2023-04-03T06:29:33;8.47;;;2.10;;
18259;SDS011;9256;52.236;5.712;2023-04-03T06:32:00;5.47;;;1.73;;
18259;SDS011;9256;52.236;5.712;2023-04-03T06:34:27;5.73;;;1.77;;
18259;SDS011;9256;52.236;5.712;2023-04-03T06:36:54;8.27;;;1.67;;
18259;SDS011;9256;52.236;5.712;2023-04-03T06:39:21;4.37;;;1.73;;
18259;SDS011;9256;52.236;5.712;2023-04-03T06:41:50;7.47;;;1.80;;
18259;SDS011;9256;52.236;5.712;2023-04-03T06:44:17;6.87;;;2.20;;
18259;SDS011;9256;52.236;5.712;2023-04-03T06:46:44;6.67;;;1.97;;
18259;SDS011;9256;52.236;5.712;2023-04-03T06:49:12;3.53;;;1.70;;
18259;SDS011;9256;52.236;5.712;2023-04-03T06:51:40;9.23;;;2.07;;
18259;SDS011;9256;52.236;5.712;2023-04-03T06:54:07;6.30;;;1.90;;
18259;SDS011;9256;52.236;5.712;2023-04-03T06:56:34;8.97;;;1.80;;
18259;SDS011;9256;52.236;5.712;2023-04-03T06:59:02;8.83;;;1.63;;
18259;SDS011;9256;52.236;5.712;2023-04-03T07:01:30;7.73;;;1.90;;
18259;SDS011;9256;52.236;5.712;2023-04-03T07:03:57;8.40;;;1.60;;
18259;SDS011;9256;52.236;5.712;2023-04-03T07:06:24;9.10;;;1.97;;
18259;SDS011;9256;52.236;5.712;2023-04-03T07:08:52;7.30;;;1.70;;
18259;SDS011;9256;52.236;5.712;2023-04-03T07:11:19;4.73;;;1.50;;
18259;SDS011;9256;52.236;5.712;2023-04-03T07:13:47;9.30;;;1.97;;
18259;SDS011;9256;52.236;5.712;2023-04-03T07:16:15;7.43;;;1.80;;
18259;SDS011;9256;52.236;5.712;2023-04-03T07:18:42;5.67;;;1.30;;
18259;SDS011;9256;52.236;5.712;2023-04-03T07:21:09;6.90;;;1.63;;
18259;SDS011;9256;52.236;5.712;2023-04-03T07:23:36;7.57;;;1.53;;
18259;SDS011;9256;52.236;5.712;2023-04-03T07:26:03;4.87;;;1.50;;
18259;SDS011;9256;52.236;5.712;2023-04-03T07:28:31;4.97;;;1.60;;
18259;SDS011;9256;52.236;5.712;2023-04-03T07:31:00;7.17;;;1.60;;
18259;SDS011;9256;52.236;5.712;2023-04-03T07:33:30;8.37;;;1.50;;
18259;SDS011;9256;52.236;5.712;2023-04-03T07:35:57;8.53;;;1.53;;
18259;SDS011;9256;52.236;5.712;2023-04-03T07:38:25;6.45;;;1.90;;
18259;SDS011;9256;52.236;5.712;2023-04-03T07:40:52;3.53;;;1.37;;
18259;SDS011;9256;52.236;5.712;2023-04-03T07:43:20;5.80;;;1.40;;
18259;SDS011;9256;52.236;5.712;2023-04-03T07:45:49;5.33;;;1.20;;
18259;SDS011;9256;52.236;5.712;2023-04-03T07:48:17;5.90;;;1.27;;
18259;SDS011;9256;52.236;5.712;2023-04-03T07:50:47;3.50;;;1.45;;
18259;SDS011;9256;52.236;5.712;2023-04-03T07:53:14;5.90;;;1.37;;
18259;SDS011;9256;52.236;5.712;2023-04-03T07:55:42;7.20;;;1.20;;
18259;SDS011;9256;52.236;5.712;2023-04-03T07:58:09;5.90;;;1.20;;
18259;SDS011;9256;52.236;5.712;2023-04-03T08:00:38;5.30;;;1.30;;
18259;SDS011;9256;52.236;5.712;2023-04-03T08:03:05;4.90;;;1.37;;
18259;SDS011;9256;52.236;5.712;2023-04-03T08:05:35;4.97;;;1.10;;
18259;SDS011;9256;52.236;5.712;2023-04-03T08:08:04;4.43;;;1.20;;
18259;SDS011;9256;52.236;5.712;2023-04-03T08:10:32;3.37;;;1.17;;
18259;SDS011;9256;52.236;5.712;2023-04-03T08:13:00;5.90;;;1.10;;
18259;SDS011;9256;52.236;5.712;2023-04-03T08:15:27;3.80;;;0.80;;
18259;SDS011;9256;52.236;5.712;2023-04-03T08:17:55;3.60;;;0.93;;
18259;SDS011;9256;52.236;5.712;2023-04-03T08:20:22;5.10;;;0.90;;
18259;SDS011;9256;52.236;5.712;2023-04-03T08:22:49;4.33;;;0.97;;
18259;SDS011;9256;52.236;5.712;2023-04-03T08:25:18;4.87;;;1.00;;
18259;SDS011;9256;52.236;5.712;2023-04-03T08:27:45;4.33;;;1.00;;
18259;SDS011;9256;52.236;5.712;2023-04-03T08:30:12;4.40;;;0.90;;
18259;SDS011;9256;52.236;5.712;2023-04-03T08:32:40;3.93;;;1.00;;
18259;SDS011;9256;52.236;5.712;2023-04-03T08:35:08;5.73;;;1.07;;
18259;SDS011;9256;52.236;5.712;2023-04-03T08:37:35;2.73;;;0.80;;
18259;SDS011;9256;52.236;5.712;2023-04-03T08:40:03;3.00;;;0.90;;
18259;SDS011;9256;52.236;5.712;2023-04-03T08:42:38;2.67;;;0.80;;
18259;SDS011;9256;52.236;5.712;2023-04-03T08:45:10;4.73;;;0.83;;
18259;SDS011;9256;52.236;5.712;2023-04-03T08:47:42;3.67;;;0.80;;
18259;SDS011;9256;52.236;5.712;2023-04-03T08:50:13;3.27;;;0.70;;
18259;SDS011;9256;52.236;5.712;2023-04-03T08:52:44;1.93;;;0.80;;
18259;SDS011;9256;52.236;5.712;2023-04-03T08:55:19;2.60;;;0.63;;
18259;SDS011;9256;52.236;5.712;2023-04-03T08:57:53;2.40;;;0.50;;
18259;SDS011;9256;52.236;5.712;2023-04-03T09:00:26;0.93;;;0.40;;
18259;SDS011;9256;52.236;5.712;2023-04-03T09:02:57;2.20;;;0.43;;
18259;SDS011;9256;52.236;5.712;2023-04-03T09:05:28;2.37;;;0.40;;
18259;SDS011;9256;52.236;5.712;2023-04-03T09:08:04;3.67;;;0.60;;
18259;SDS011;9256;52.236;5.712;2023-04-03T09:10:38;1.23;;;0.40;;
18259;SDS011;9256;52.236;5.712;2023-04-03T09:13:10;2.70;;;0.75;;
18259;SDS011;9256;52.236;5.712;2023-04-03T09:15:46;2.33;;;0.67;;
18259;SDS011;9256;52.236;5.712;2023-04-03T09:18:15;1.63;;;0.40;;
18259;SDS011;9256;52.236;5.712;2023-04-03T09:20:49;1.67;;;0.47;;
18259;SDS011;9256;52.236;5.712;2023-04-03T09:23:24;0.70;;;0.30;;
18259;SDS011;9256;52.236;5.712;2023-04-03T09:25:56;2.88;;;0.68;;
18259;SDS011;9256;52.236;5.712;2023-04-03T09:28:28;0.95;;;0.43;;
18259;SDS011;9256;52.236;5.712;2023-04-03T09:30:57;0.40;;;0.30;;
18259;SDS011;9256;52.236;5.712;2023-04-03T09:33:26;1.60;;;0.50;;
18259;SDS011;9256;52.236;5.712;2023-04-03T09:35:56;1.20;;;0.47;;
18259;SDS011;9256;52.236;5.712;2023-04-03T09:38:22;0.80;;;0.37;;
18259;SDS011;9256;52.236;5.712;2023-04-03T09:40:50;1.13;;;0.40;;
18259;SDS011;9256;52.236;5.712;2023-04-03T09:43:31;0.88;;;0.35;;
18259;SDS011;9256;52.236;5.712;2023-04-03T09:48:51;0.80;;;0.40;;
18259;SDS011;9256;52.236;5.712;2023-04-03T09:51:24;0.45;;;0.30;;
18259;SDS011;9256;52.236;5.712;2023-04-03T09:53:53;1.48;;;0.40;;
18259;SDS011;9256;52.236;5.712;2023-04-03T09:56:22;1.80;;;0.40;;
18259;SDS011;9256;52.236;5.712;2023-04-03T09:59:02;1.23;;;0.40;;
18259;SDS011;9256;52.236;5.712;2023-04-03T10:01:35;0.20;;;0.20;;
18259;SDS011;9256;52.236;5.712;2023-04-03T10:04:04;2.80;;;0.45;;
18259;SDS011;9256;52.236;5.712;2023-04-03T10:06:34;2.13;;;0.30;;
18259;SDS011;9256;52.236;5.712;2023-04-03T10:09:03;2.17;;;0.50;;
18259;SDS011;9256;52.236;5.712;2023-04-03T10:11:32;1.50;;;0.32;;
18259;SDS011;9256;52.236;5.712;2023-04-03T10:14:02;0.85;;;0.35;;
18259;SDS011;9256;52.236;5.712;2023-04-03T10:16:32;1.38;;;0.40;;
18259;SDS011;9256;52.236;5.712;2023-04-03T10:19:14;1.15;;;0.50;;
18259;SDS011;9256;52.236;5.712;2023-04-03T10:21:55;3.05;;;0.40;;
18259;SDS011;9256;52.236;5.712;2023-04-03T10:24:28;0.57;;;0.30;;
18259;SDS011;9256;52.236;5.712;2023-04-03T10:27:03;0.30;;;0.20;;
18259;SDS011;9256;52.236;5.712;2023-04-03T10:29:40;1.60;;;0.40;;
18259;SDS011;9256;52.236;5.712;2023-04-03T10:32:15;0.90;;;0.30;;
18259;SDS011;9256;52.236;5.712;2023-04-03T10:34:54;0.82;;;0.30;;
18259;SDS011;9256;52.236;5.712;2023-04-03T10:37:27;1.10;;;0.30;;
18259;SDS011;9256;52.236;5.712;2023-04-03T10:40:02;0.88;;;0.40;;
18259;SDS011;9256;52.236;5.712;2023-04-03T10:42:50;0.70;;;0.40;;
18259;SDS011;9256;52.236;5.712;2023-04-03T10:45:26;2.17;;;0.35;;
18259;SDS011;9256;52.236;5.712;2023-04-03T10:48:00;3.50;;;0.50;;
18259;SDS011;9256;52.236;5.712;2023-04-03T10:50:43;2.47;;;0.70;;
18259;SDS011;9256;52.236;5.712;2023-04-03T10:53:17;2.88;;;0.50;;
18259;SDS011;9256;52.236;5.712;2023-04-03T10:55:50;1.40;;;0.77;;
18259;SDS011;9256;52.236;5.712;2023-04-03T10:58:25;2.08;;;0.32;;
18259;SDS011;9256;52.236;5.712;2023-04-03T11:00:59;1.65;;;0.30;;
18259;SDS011;9256;52.236;5.712;2023-04-03T11:03:33;3.10;;;0.50;;
18259;SDS011;9256;52.236;5.712;2023-04-03T11:06:06;1.83;;;0.60;;
18259;SDS011;9256;52.236;5.712;2023-04-03T11:08:37;1.42;;;0.32;;
18259;SDS011;9256;52.236;5.712;2023-04-03T11:11:09;2.25;;;0.40;;
18259;SDS011;9256;52.236;5.712;2023-04-03T11:13:41;0.85;;;0.40;;
18259;SDS011;9256;52.236;5.712;2023-04-03T11:16:14;1.02;;;0.40;;
18259;SDS011;9256;52.236;5.712;2023-04-03T11:18:46;1.40;;;0.40;;
18259;SDS011;9256;52.236;5.712;2023-04-03T11:21:19;2.80;;;0.50;;
18259;SDS011;9256;52.236;5.712;2023-04-03T11:23:49;0.93;;;0.30;;
18259;SDS011;9256;52.236;5.712;2023-04-03T11:26:19;0.95;;;0.35;;
18259;SDS011;9256;52.236;5.712;2023-04-03T11:28:52;1.95;;;0.40;;
18259;SDS011;9256;52.236;5.712;2023-04-03T11:31:26;2.00;;;0.50;;
18259;SDS011;9256;52.236;5.712;2023-04-03T11:34:09;1.83;;;0.40;;
18259;SDS011;9256;52.236;5.712;2023-04-03T11:36:49;0.68;;;0.40;;
18259;SDS011;9256;52.236;5.712;2023-04-03T11:39:21;2.33;;;0.50;;
18259;SDS011;9256;52.236;5.712;2023-04-03T11:41:51;2.75;;;0.50;;
18259;SDS011;9256;52.236;5.712;2023-04-03T11:44:29;3.17;;;0.60;;
18259;SDS011;9256;52.236;5.712;2023-04-03T11:47:01;2.55;;;0.45;;
18259;SDS011;9256;52.236;5.712;2023-04-03T11:58:13;1.77;;;0.38;;
18259;SDS011;9256;52.236;5.712;2023-04-03T12:03:33;4.15;;;0.60;;
18259;SDS011;9256;52.236;5.712;2023-04-03T12:09:26;2.05;;;0.50;;
18259;SDS011;9256;52.236;5.712;2023-04-03T12:11:56;1.42;;;0.52;;
18259;SDS011;9256;52.236;5.712;2023-04-03T12:14:25;1.58;;;0.50;;
18259;SDS011;9256;52.236;5.712;2023-04-03T12:16:54;2.53;;;0.50;;
18259;SDS011;9256;52.236;5.712;2023-04-03T12:19:36;2.03;;;0.47;;
18259;SDS011;9256;52.236;5.712;2023-04-03T12:22:16;2.90;;;0.60;;
18259;SDS011;9256;52.236;5.712;2023-04-03T12:24:45;1.48;;;0.45;;
18259;SDS011;9256;52.236;5.712;2023-04-03T12:27:21;1.40;;;0.35;;
18259;SDS011;9256;52.236;5.712;2023-04-03T12:29:55;3.67;;;0.80;;
18259;SDS011;9256;52.236;5.712;2023-04-03T12:32:32;0.93;;;0.50;;
18259;SDS011;9256;52.236;5.712;2023-04-03T12:41:18;2.90;;;0.43;;
18259;SDS011;9256;52.236;5.712;2023-04-03T12:43:55;1.63;;;0.50;;
18259;SDS011;9256;52.236;5.712;2023-04-03T12:46:48;1.15;;;0.55;;
18259;SDS011;9256;52.236;5.712;2023-04-03T12:49:22;1.33;;;0.50;;
18259;SDS011;9256;52.236;5.712;2023-04-03T12:52:00;2.72;;;0.57;;
18259;SDS011;9256;52.236;5.712;2023-04-03T12:54:32;1.85;;;0.70;;
18259;SDS011;9256;52.236;5.712;2023-04-03T12:57:09;1.05;;;0.63;;
18259;SDS011;9256;52.236;5.712;2023-04-03T12:59:36;1.92;;;0.52;;
18259;SDS011;9256;52.236;5.712;2023-04-03T13:02:09;1.92;;;0.80;;
18259;SDS011;9256;52.236;5.712;2023-04-03T13:04:45;3.10;;;0.65;;
18259;SDS011;9256;52.236;5.712;2023-04-03T13:07:20;3.58;;;0.77;;
18259;SDS011;9256;52.236;5.712;2023-04-03T13:09:57;3.33;;;0.73;;
18259;SDS011;9256;52.236;5.712;2023-04-03T13:12:26;3.25;;;0.80;;
18259;SDS011;9256;52.236;5.712;2023-04-03T13:14:54;1.75;;;0.60;;
18259;SDS011;9256;52.236;5.712;2023-04-03T13:17:24;1.90;;;0.60;;
18259;SDS011;9256;52.236;5.712;2023-04-03T13:19:53;4.38;;;0.70;;
18259;SDS011;9256;52.236;5.712;2023-04-03T13:22:25;2.28;;;0.60;;
18259;SDS011;9256;52.236;5.712;2023-04-03T13:24:56;1.92;;;0.60;;
18259;SDS011;9256;52.236;5.712;2023-04-03T13:27:26;2.63;;;0.50;;
18259;SDS011;9256;52.236;5.712;2023-04-03T13:29:56;3.03;;;0.80;;
18259;SDS011;9256;52.236;5.712;2023-04-03T13:32:26;5.57;;;0.70;;
18259;SDS011;9256;52.236;5.712;2023-04-03T13:34:56;2.60;;;1.10;;
18259;SDS011;9256;52.236;5.712;2023-04-03T13:37:25;1.77;;;0.55;;
18259;SDS011;9256;52.236;5.712;2023-04-03T13:39:57;3.47;;;0.80;;
18259;SDS011;9256;52.236;5.712;2023-04-03T13:42:37;2.58;;;0.60;;
18259;SDS011;9256;52.236;5.712;2023-04-03T13:45:09;2.45;;;0.70;;
18259;SDS011;9256;52.236;5.712;2023-04-03T13:47:48;3.45;;;0.88;;
18259;SDS011;9256;52.236;5.712;2023-04-03T13:50:18;4.45;;;0.98;;
18259;SDS011;9256;52.236;5.712;2023-04-03T13:52:49;4.03;;;0.73;;
18259;SDS011;9256;52.236;5.712;2023-04-03T13:55:21;1.77;;;0.80;;
18259;SDS011;9256;52.236;5.712;2023-04-03T13:57:51;3.60;;;0.73;;
18259;SDS011;9256;52.236;5.712;2023-04-03T14:00:21;8.07;;;2.40;;
18259;SDS011;9256;52.236;5.712;2023-04-03T14:03:00;3.67;;;0.90;;
18259;SDS011;9256;52.236;5.712;2023-04-03T14:05:27;10.32;;;3.75;;
18259;SDS011;9256;52.236;5.712;2023-04-03T14:07:55;10.73;;;3.67;;
18259;SDS011;9256;52.236;5.712;2023-04-03T14:10:23;3.65;;;0.90;;
18259;SDS011;9256;52.236;5.712;2023-04-03T14:12:50;4.60;;;1.83;;
18259;SDS011;9256;52.236;5.712;2023-04-03T14:15:18;3.05;;;1.13;;
18259;SDS011;9256;52.236;5.712;2023-04-03T14:17:49;9.27;;;2.42;;
18259;SDS011;9256;52.236;5.712;2023-04-03T14:20:18;2.53;;;1.00;;
18259;SDS011;9256;52.236;5.712;2023-04-03T14:22:46;6.60;;;1.20;;
18259;SDS011;9256;52.236;5.712;2023-04-03T14:25:15;4.03;;;0.88;;
18259;SDS011;9256;52.236;5.712;2023-04-03T14:27:45;3.67;;;1.17;;
18259;SDS011;9256;52.236;5.712;2023-04-03T14:30:16;4.00;;;1.10;;
18259;SDS011;9256;52.236;5.712;2023-04-03T14:32:44;3.72;;;1.10;;
18259;SDS011;9256;52.236;5.712;2023-04-03T14:35:12;5.75;;;0.90;;
18259;SDS011;9256;52.236;5.712;2023-04-03T14:37:40;6.07;;;1.17;;
18259;SDS011;9256;52.236;5.712;2023-04-03T14:40:08;4.63;;;0.93;;
18259;SDS011;9256;52.236;5.712;2023-04-03T14:42:40;3.08;;;0.80;;
18259;SDS011;9256;52.236;5.712;2023-04-03T14:45:08;3.10;;;1.02;;
18259;SDS011;9256;52.236;5.712;2023-04-03T14:47:38;3.72;;;0.95;;
18259;SDS011;9256;52.236;5.712;2023-04-03T14:50:11;2.58;;;0.90;;
18259;SDS011;9256;52.236;5.712;2023-04-03T14:52:40;6.55;;;1.05;;
18259;SDS011;9256;52.236;5.712;2023-04-03T14:55:07;2.70;;;1.13;;
18259;SDS011;9256;52.236;5.712;2023-04-03T14:57:34;6.05;;;1.20;;
18259;SDS011;9256;52.236;5.712;2023-04-03T15:00:03;3.08;;;1.02;;
18259;SDS011;9256;52.236;5.712;2023-04-03T15:02:33;3.80;;;1.00;;
18259;SDS011;9256;52.236;5.712;2023-04-03T15:05:03;3.35;;;1.10;;
18259;SDS011;9256;52.236;5.712;2023-04-03T15:07:33;2.72;;;0.70;;
18259;SDS011;9256;52.236;5.712;2023-04-03T15:10:03;2.58;;;0.90;;
18259;SDS011;9256;52.236;5.712;2023-04-03T15:12:41;3.30;;;0.90;;
18259;SDS011;9256;52.236;5.712;2023-04-03T15:15:10;6.65;;;1.02;;
18259;SDS011;9256;52.236;5.712;2023-04-03T15:17:37;1.67;;;0.73;;
18259;SDS011;9256;52.236;5.712;2023-04-03T15:20:06;5.07;;;0.95;;
18259;SDS011;9256;52.236;5.712;2023-04-03T15:22:38;5.03;;;0.80;;
18259;SDS011;9256;52.236;5.712;2023-04-03T15:25:05;5.00;;;1.10;;
18259;SDS011;9256;52.236;5.712;2023-04-03T15:27:33;4.75;;;0.93;;
18259;SDS011;9256;52.236;5.712;2023-04-03T15:30:00;2.85;;;0.80;;
18259;SDS011;9256;52.236;5.712;2023-04-03T15:32:28;4.05;;;0.90;;
18259;SDS011;9256;52.236;5.712;2023-04-03T15:34:56;2.42;;;0.90;;
18259;SDS011;9256;52.236;5.712;2023-04-03T15:37:22;3.60;;;0.90;;
18259;SDS011;9256;52.236;5.712;2023-04-03T15:39:49;1.65;;;0.60;;
18259;SDS011;9256;52.236;5.712;2023-04-03T15:42:16;4.85;;;0.95;;